sensor_id;sensor_type;location;lat;lon;timestamp;P1;durP1;ratioP1;P2;durP2;ratioP2
50126;SDS011;36024;47.974;16.398;2023-04-24T00:01:01;4.03;;;3.60;;
50126;SDS011;36024;47.974;16.398;2023-04-24T00:03:28;5.07;;;4.10;;
50126;SDS011;36024;47.974;16.398;2023-04-24T00:05:55;4.60;;;4.20;;
50126;SDS011;36024;47.974;16.398;2023-04-24T00:08:22;5.00;;;4.50;;
50126;SDS011;36024;47.974;16.398;2023-04-24T00:10:50;4.47;;;4.17;;
50126;SDS011;36024;47.974;16.398;2023-04-24T00:13:18;4.33;;;3.93;;
50126;SDS011;36024;47.974;16.398;2023-04-24T00:15:45;4.90;;;4.40;;
50126;SDS011;36024;47.974;16.398;2023-04-24T00:18:12;4.50;;;4.10;;
50126;SDS011;36024;47.974;16.398;2023-04-24T00:20:39;4.43;;;4.03;;
50126;SDS011;36024;47.974;16.398;2023-04-24T00:23:06;4.97;;;4.40;;
50126;SDS011;36024;47.974;16.398;2023-04-24T00:25:32;4.70;;;4.30;;
50126;SDS011;36024;47.974;16.398;2023-04-24T00:27:59;5.07;;;4.67;;
50126;SDS011;36024;47.974;16.398;2023-04-24T00:30:26;5.93;;;4.50;;
50126;SDS011;36024;47.974;16.398;2023-04-24T00:32:53;4.20;;;3.80;;
50126;SDS011;36024;47.974;16.398;2023-04-24T00:35:20;4.33;;;3.93;;
50126;SDS011;36024;47.974;16.398;2023-04-24T00:37:47;4.73;;;4.00;;
50126;SDS011;36024;47.974;16.398;2023-04-24T00:40:14;4.20;;;3.90;;
50126;SDS011;36024;47.974;16.398;2023-04-24T00:42:41;4.77;;;4.10;;
50126;SDS011;36024;47.974;16.398;2023-04-24T00:45:08;4.73;;;4.10;;
50126;SDS011;36024;47.974;16.398;2023-04-24T00:47:35;4.90;;;4.40;;
50126;SDS011;36024;47.974;16.398;2023-04-24T00:50:06;4.60;;;4.20;;
50126;SDS011;36024;47.974;16.398;2023-04-24T00:52:33;5.40;;;4.00;;
50126;SDS011;36024;47.974;16.398;2023-04-24T00:55:00;4.43;;;4.03;;
50126;SDS011;36024;47.974;16.398;2023-04-24T00:57:27;4.50;;;4.10;;
50126;SDS011;36024;47.974;16.398;2023-04-24T00:59:54;4.50;;;4.10;;
50126;SDS011;36024;47.974;16.398;2023-04-24T01:02:21;4.57;;;4.17;;
50126;SDS011;36024;47.974;16.398;2023-04-24T01:04:50;4.50;;;4.10;;
50126;SDS011;36024;47.974;16.398;2023-04-24T01:07:20;4.47;;;3.73;;
50126;SDS011;36024;47.974;16.398;2023-04-24T01:09:50;4.47;;;4.07;;
50126;SDS011;36024;47.974;16.398;2023-04-24T01:12:19;5.20;;;4.30;;
50126;SDS011;36024;47.974;16.398;2023-04-24T01:14:46;4.90;;;4.43;;
50126;SDS011;36024;47.974;16.398;2023-04-24T01:17:14;4.53;;;4.10;;
50126;SDS011;36024;47.974;16.398;2023-04-24T01:19:42;4.70;;;4.30;;
50126;SDS011;36024;47.974;16.398;2023-04-24T01:22:12;4.57;;;4.13;;
50126;SDS011;36024;47.974;16.398;2023-04-24T01:24:40;5.67;;;4.80;;
50126;SDS011;36024;47.974;16.398;2023-04-24T01:27:08;4.80;;;4.40;;
50126;SDS011;36024;47.974;16.398;2023-04-24T01:29:36;4.73;;;4.33;;
50126;SDS011;36024;47.974;16.398;2023-04-24T01:32:03;5.07;;;4.57;;
50126;SDS011;36024;47.974;16.398;2023-04-24T01:34:30;5.10;;;4.70;;
50126;SDS011;36024;47.974;16.398;2023-04-24T01:36:58;5.03;;;4.63;;
50126;SDS011;36024;47.974;16.398;2023-04-24T01:39:24;4.90;;;4.50;;
50126;SDS011;36024;47.974;16.398;2023-04-24T01:41:52;4.73;;;4.33;;
50126;SDS011;36024;47.974;16.398;2023-04-24T01:44:20;5.47;;;4.50;;
50126;SDS011;36024;47.974;16.398;2023-04-24T01:46:47;4.40;;;4.10;;
50126;SDS011;36024;47.974;16.398;2023-04-24T01:49:14;4.53;;;4.13;;
50126;SDS011;36024;47.974;16.398;2023-04-24T01:51:41;4.67;;;3.87;;
50126;SDS011;36024;47.974;16.398;2023-04-24T01:54:07;4.20;;;3.90;;
50126;SDS011;36024;47.974;16.398;2023-04-24T01:56:34;5.23;;;3.80;;
50126;SDS011;36024;47.974;16.398;2023-04-24T01:59:04;4.40;;;4.03;;
50126;SDS011;36024;47.974;16.398;2023-04-24T02:01:34;4.10;;;3.80;;
50126;SDS011;36024;47.974;16.398;2023-04-24T02:04:05;4.53;;;4.23;;
50126;SDS011;36024;47.974;16.398;2023-04-24T02:06:34;5.40;;;4.73;;
50126;SDS011;36024;47.974;16.398;2023-04-24T02:09:01;4.27;;;3.97;;
50126;SDS011;36024;47.974;16.398;2023-04-24T02:11:29;5.00;;;4.50;;
50126;SDS011;36024;47.974;16.398;2023-04-24T02:13:56;4.40;;;4.00;;
50126;SDS011;36024;47.974;16.398;2023-04-24T02:16:23;4.60;;;4.20;;
50126;SDS011;36024;47.974;16.398;2023-04-24T02:18:50;4.50;;;4.10;;
50126;SDS011;36024;47.974;16.398;2023-04-24T02:21:17;4.77;;;4.37;;
50126;SDS011;36024;47.974;16.398;2023-04-24T02:23:43;4.63;;;4.27;;
50126;SDS011;36024;47.974;16.398;2023-04-24T02:26:12;4.70;;;4.30;;
50126;SDS011;36024;47.974;16.398;2023-04-24T02:28:38;4.73;;;4.23;;
50126;SDS011;36024;47.974;16.398;2023-04-24T02:31:05;4.70;;;4.30;;
50126;SDS011;36024;47.974;16.398;2023-04-24T02:33:32;4.50;;;4.10;;
50126;SDS011;36024;47.974;16.398;2023-04-24T02:35:59;4.60;;;4.20;;
50126;SDS011;36024;47.974;16.398;2023-04-24T02:38:26;5.73;;;4.23;;
50126;SDS011;36024;47.974;16.398;2023-04-24T02:40:53;5.53;;;4.53;;
50126;SDS011;36024;47.974;16.398;2023-04-24T02:43:20;5.07;;;4.67;;
50126;SDS011;36024;47.974;16.398;2023-04-24T02:45:46;5.10;;;4.70;;
50126;SDS011;36024;47.974;16.398;2023-04-24T02:48:13;5.17;;;4.73;;
50126;SDS011;36024;47.974;16.398;2023-04-24T02:50:40;6.77;;;4.70;;
50126;SDS011;36024;47.974;16.398;2023-04-24T02:53:07;5.03;;;4.50;;
50126;SDS011;36024;47.974;16.398;2023-04-24T02:55:33;5.30;;;4.80;;
50126;SDS011;36024;47.974;16.398;2023-04-24T02:58:00;5.53;;;5.13;;
50126;SDS011;36024;47.974;16.398;2023-04-24T03:00:27;5.40;;;4.90;;
50126;SDS011;36024;47.974;16.398;2023-04-24T03:02:54;5.30;;;4.80;;
50126;SDS011;36024;47.974;16.398;2023-04-24T03:05:21;5.07;;;4.63;;
50126;SDS011;36024;47.974;16.398;2023-04-24T03:07:48;4.67;;;4.30;;
50126;SDS011;36024;47.974;16.398;2023-04-24T03:10:14;5.10;;;4.63;;
50126;SDS011;36024;47.974;16.398;2023-04-24T03:12:41;5.10;;;4.70;;
50126;SDS011;36024;47.974;16.398;2023-04-24T03:15:08;4.90;;;4.50;;
50126;SDS011;36024;47.974;16.398;2023-04-24T03:17:36;5.50;;;5.00;;
50126;SDS011;36024;47.974;16.398;2023-04-24T03:20:03;4.87;;;4.37;;
50126;SDS011;36024;47.974;16.398;2023-04-24T03:22:31;6.30;;;4.70;;
50126;SDS011;36024;47.974;16.398;2023-04-24T03:25:01;5.67;;;5.07;;
50126;SDS011;36024;47.974;16.398;2023-04-24T03:27:29;5.10;;;4.60;;
50126;SDS011;36024;47.974;16.398;2023-04-24T03:30:02;4.83;;;4.43;;
50126;SDS011;36024;47.974;16.398;2023-04-24T03:32:39;4.63;;;4.33;;
50126;SDS011;36024;47.974;16.398;2023-04-24T03:35:09;5.20;;;4.60;;
50126;SDS011;36024;47.974;16.398;2023-04-24T03:37:36;4.83;;;4.43;;
50126;SDS011;36024;47.974;16.398;2023-04-24T03:40:25;4.90;;;4.50;;
50126;SDS011;36024;47.974;16.398;2023-04-24T03:42:52;5.00;;;4.60;;
50126;SDS011;36024;47.974;16.398;2023-04-24T03:45:19;4.77;;;4.27;;
50126;SDS011;36024;47.974;16.398;2023-04-24T03:47:48;4.70;;;4.30;;
50126;SDS011;36024;47.974;16.398;2023-04-24T03:50:15;5.33;;;4.60;;
50126;SDS011;36024;47.974;16.398;2023-04-24T03:52:43;5.40;;;4.90;;
50126;SDS011;36024;47.974;16.398;2023-04-24T03:55:16;5.70;;;5.10;;
50126;SDS011;36024;47.974;16.398;2023-04-24T03:57:45;5.10;;;4.63;;
50126;SDS011;36024;47.974;16.398;2023-04-24T04:00:19;5.10;;;4.60;;
50126;SDS011;36024;47.974;16.398;2023-04-24T04:02:55;5.30;;;4.90;;
50126;SDS011;36024;47.974;16.398;2023-04-24T04:05:22;5.53;;;5.03;;
50126;SDS011;36024;47.974;16.398;2023-04-24T04:07:49;5.03;;;4.57;;
50126;SDS011;36024;47.974;16.398;2023-04-24T04:10:16;6.17;;;5.30;;
50126;SDS011;36024;47.974;16.398;2023-04-24T04:12:43;5.23;;;4.73;;
50126;SDS011;36024;47.974;16.398;2023-04-24T04:15:10;5.20;;;4.80;;
50126;SDS011;36024;47.974;16.398;2023-04-24T04:17:37;5.30;;;4.80;;
50126;SDS011;36024;47.974;16.398;2023-04-24T04:20:06;5.13;;;4.73;;
50126;SDS011;36024;47.974;16.398;2023-04-24T04:22:38;4.93;;;4.53;;
50126;SDS011;36024;47.974;16.398;2023-04-24T04:25:08;5.30;;;4.80;;
50126;SDS011;36024;47.974;16.398;2023-04-24T04:27:35;4.93;;;4.50;;
50126;SDS011;36024;47.974;16.398;2023-04-24T04:30:08;4.13;;;3.73;;
50126;SDS011;36024;47.974;16.398;2023-04-24T04:32:56;4.00;;;3.60;;
50126;SDS011;36024;47.974;16.398;2023-04-24T04:35:23;3.53;;;2.90;;
50126;SDS011;36024;47.974;16.398;2023-04-24T04:37:51;2.90;;;2.60;;
50126;SDS011;36024;47.974;16.398;2023-04-24T04:40:37;3.73;;;2.70;;
50126;SDS011;36024;47.974;16.398;2023-04-24T04:43:05;5.37;;;2.90;;
50126;SDS011;36024;47.974;16.398;2023-04-24T04:45:40;4.70;;;3.07;;
50126;SDS011;36024;47.974;16.398;2023-04-24T04:48:43;3.73;;;3.37;;
50126;SDS011;36024;47.974;16.398;2023-04-24T04:51:10;4.30;;;3.70;;
50126;SDS011;36024;47.974;16.398;2023-04-24T04:53:37;4.57;;;4.10;;
50126;SDS011;36024;47.974;16.398;2023-04-24T04:56:03;3.53;;;3.27;;
50126;SDS011;36024;47.974;16.398;2023-04-24T04:58:38;3.30;;;3.00;;
50126;SDS011;36024;47.974;16.398;2023-04-24T05:01:08;4.20;;;3.30;;
50126;SDS011;36024;47.974;16.398;2023-04-24T05:03:40;3.13;;;2.83;;
50126;SDS011;36024;47.974;16.398;2023-04-24T05:06:10;4.90;;;4.37;;
50126;SDS011;36024;47.974;16.398;2023-04-24T05:08:38;3.80;;;3.33;;
50126;SDS011;36024;47.974;16.398;2023-04-24T05:11:08;2.93;;;2.20;;
50126;SDS011;36024;47.974;16.398;2023-04-24T05:13:36;2.43;;;2.13;;
50126;SDS011;36024;47.974;16.398;2023-04-24T05:16:12;2.13;;;1.77;;
50126;SDS011;36024;47.974;16.398;2023-04-24T05:18:39;2.80;;;2.00;;
50126;SDS011;36024;47.974;16.398;2023-04-24T05:21:08;2.20;;;2.10;;
50126;SDS011;36024;47.974;16.398;2023-04-24T05:23:38;2.17;;;2.00;;
50126;SDS011;36024;47.974;16.398;2023-04-24T05:26:05;2.20;;;2.10;;
50126;SDS011;36024;47.974;16.398;2023-04-24T05:28:33;2.37;;;1.90;;
50126;SDS011;36024;47.974;16.398;2023-04-24T05:31:07;2.80;;;2.07;;
50126;SDS011;36024;47.974;16.398;2023-04-24T05:33:34;2.00;;;1.90;;
50126;SDS011;36024;47.974;16.398;2023-04-24T05:36:01;2.03;;;1.83;;
50126;SDS011;36024;47.974;16.398;2023-04-24T05:38:28;2.10;;;2.00;;
50126;SDS011;36024;47.974;16.398;2023-04-24T05:40:55;2.00;;;1.83;;
50126;SDS011;36024;47.974;16.398;2023-04-24T05:43:21;2.20;;;1.90;;
50126;SDS011;36024;47.974;16.398;2023-04-24T05:45:48;1.97;;;1.87;;
50126;SDS011;36024;47.974;16.398;2023-04-24T05:48:17;3.33;;;1.93;;
50126;SDS011;36024;47.974;16.398;2023-04-24T05:50:43;2.03;;;1.90;;
50126;SDS011;36024;47.974;16.398;2023-04-24T05:53:10;1.70;;;1.60;;
50126;SDS011;36024;47.974;16.398;2023-04-24T05:55:37;1.90;;;1.67;;
50126;SDS011;36024;47.974;16.398;2023-04-24T05:58:04;1.97;;;1.87;;
50126;SDS011;36024;47.974;16.398;2023-04-24T06:00:34;1.87;;;1.77;;
50126;SDS011;36024;47.974;16.398;2023-04-24T06:03:05;2.90;;;1.53;;
50126;SDS011;36024;47.974;16.398;2023-04-24T06:05:32;3.03;;;1.50;;
50126;SDS011;36024;47.974;16.398;2023-04-24T06:08:01;2.13;;;1.50;;
50126;SDS011;36024;47.974;16.398;2023-04-24T06:10:32;1.57;;;1.47;;
50126;SDS011;36024;47.974;16.398;2023-04-24T06:12:59;1.47;;;1.37;;
50126;SDS011;36024;47.974;16.398;2023-04-24T06:15:29;1.90;;;1.67;;
50126;SDS011;36024;47.974;16.398;2023-04-24T06:18:03;2.57;;;1.63;;
50126;SDS011;36024;47.974;16.398;2023-04-24T06:20:29;1.83;;;1.57;;
50126;SDS011;36024;47.974;16.398;2023-04-24T06:22:56;4.33;;;1.77;;
50126;SDS011;36024;47.974;16.398;2023-04-24T06:25:26;3.03;;;1.60;;
50126;SDS011;36024;47.974;16.398;2023-04-24T06:27:53;2.03;;;1.40;;
50126;SDS011;36024;47.974;16.398;2023-04-24T06:30:22;1.50;;;1.40;;
50126;SDS011;36024;47.974;16.398;2023-04-24T06:32:48;1.47;;;1.33;;
50126;SDS011;36024;47.974;16.398;2023-04-24T06:35:15;2.43;;;1.40;;
50126;SDS011;36024;47.974;16.398;2023-04-24T06:37:42;1.30;;;1.20;;
50126;SDS011;36024;47.974;16.398;2023-04-24T06:40:09;2.30;;;1.30;;
50126;SDS011;36024;47.974;16.398;2023-04-24T06:42:37;1.53;;;1.40;;
50126;SDS011;36024;47.974;16.398;2023-04-24T06:45:07;1.43;;;1.30;;
50126;SDS011;36024;47.974;16.398;2023-04-24T06:47:34;1.30;;;1.10;;
50126;SDS011;36024;47.974;16.398;2023-04-24T06:50:00;1.87;;;1.20;;
50126;SDS011;36024;47.974;16.398;2023-04-24T06:52:27;1.30;;;1.20;;
50126;SDS011;36024;47.974;16.398;2023-04-24T06:54:59;1.20;;;1.10;;
50126;SDS011;36024;47.974;16.398;2023-04-24T06:57:27;2.40;;;1.30;;
50126;SDS011;36024;47.974;16.398;2023-04-24T06:59:54;1.40;;;1.30;;
50126;SDS011;36024;47.974;16.398;2023-04-24T07:02:21;1.20;;;1.10;;
50126;SDS011;36024;47.974;16.398;2023-04-24T07:04:48;1.53;;;1.10;;
50126;SDS011;36024;47.974;16.398;2023-04-24T07:07:14;1.17;;;1.07;;
50126;SDS011;36024;47.974;16.398;2023-04-24T07:09:42;3.77;;;1.20;;
50126;SDS011;36024;47.974;16.398;2023-04-24T07:12:09;1.17;;;1.07;;
50126;SDS011;36024;47.974;16.398;2023-04-24T07:14:39;1.30;;;1.20;;
50126;SDS011;36024;47.974;16.398;2023-04-24T07:17:06;1.30;;;1.00;;
50126;SDS011;36024;47.974;16.398;2023-04-24T07:19:33;1.20;;;0.97;;
50126;SDS011;36024;47.974;16.398;2023-04-24T07:22:01;1.10;;;1.00;;
50126;SDS011;36024;47.974;16.398;2023-04-24T07:24:29;0.90;;;0.90;;
50126;SDS011;36024;47.974;16.398;2023-04-24T07:26:58;1.00;;;0.90;;
50126;SDS011;36024;47.974;16.398;2023-04-24T07:29:27;1.43;;;0.80;;
50126;SDS011;36024;47.974;16.398;2023-04-24T07:31:54;0.90;;;0.80;;
50126;SDS011;36024;47.974;16.398;2023-04-24T07:34:20;0.77;;;0.77;;
50126;SDS011;36024;47.974;16.398;2023-04-24T07:36:47;0.70;;;0.70;;
50126;SDS011;36024;47.974;16.398;2023-04-24T07:39:14;0.60;;;0.60;;
50126;SDS011;36024;47.974;16.398;2023-04-24T07:41:40;1.13;;;0.60;;
50126;SDS011;36024;47.974;16.398;2023-04-24T07:44:07;0.80;;;0.77;;
50126;SDS011;36024;47.974;16.398;2023-04-24T07:46:34;1.33;;;0.60;;
50126;SDS011;36024;47.974;16.398;2023-04-24T07:49:01;0.60;;;0.60;;
50126;SDS011;36024;47.974;16.398;2023-04-24T07:51:39;0.63;;;0.63;;
50126;SDS011;36024;47.974;16.398;2023-04-24T07:54:06;0.60;;;0.60;;
50126;SDS011;36024;47.974;16.398;2023-04-24T07:56:33;1.10;;;0.63;;
50126;SDS011;36024;47.974;16.398;2023-04-24T07:59:00;0.70;;;0.60;;
50126;SDS011;36024;47.974;16.398;2023-04-24T08:01:27;0.67;;;0.67;;
50126;SDS011;36024;47.974;16.398;2023-04-24T08:03:54;0.80;;;0.60;;
50126;SDS011;36024;47.974;16.398;2023-04-24T08:06:21;0.60;;;0.60;;
50126;SDS011;36024;47.974;16.398;2023-04-24T08:08:48;0.83;;;0.70;;
50126;SDS011;36024;47.974;16.398;2023-04-24T08:11:15;0.93;;;0.70;;
50126;SDS011;36024;47.974;16.398;2023-04-24T08:13:41;0.73;;;0.70;;
50126;SDS011;36024;47.974;16.398;2023-04-24T08:16:08;0.80;;;0.60;;
50126;SDS011;36024;47.974;16.398;2023-04-24T08:18:35;1.30;;;0.80;;
50126;SDS011;36024;47.974;16.398;2023-04-24T08:21:02;0.60;;;0.60;;
50126;SDS011;36024;47.974;16.398;2023-04-24T08:23:29;0.70;;;0.50;;
50126;SDS011;36024;47.974;16.398;2023-04-24T08:25:55;0.50;;;0.50;;
50126;SDS011;36024;47.974;16.398;2023-04-24T08:28:23;0.60;;;0.60;;
50126;SDS011;36024;47.974;16.398;2023-04-24T08:30:50;0.90;;;0.60;;
50126;SDS011;36024;47.974;16.398;2023-04-24T08:33:24;1.27;;;0.60;;
50126;SDS011;36024;47.974;16.398;2023-04-24T08:35:51;0.87;;;0.63;;
50126;SDS011;36024;47.974;16.398;2023-04-24T08:38:19;0.87;;;0.67;;
50126;SDS011;36024;47.974;16.398;2023-04-24T08:40:47;0.60;;;0.60;;
50126;SDS011;36024;47.974;16.398;2023-04-24T08:43:16;0.73;;;0.70;;
50126;SDS011;36024;47.974;16.398;2023-04-24T08:45:42;0.60;;;0.60;;
50126;SDS011;36024;47.974;16.398;2023-04-24T08:48:09;0.50;;;0.50;;
50126;SDS011;36024;47.974;16.398;2023-04-24T08:50:53;1.37;;;0.57;;
50126;SDS011;36024;47.974;16.398;2023-04-24T08:53:19;0.90;;;0.60;;
50126;SDS011;36024;47.974;16.398;2023-04-24T08:55:47;0.60;;;0.50;;
50126;SDS011;36024;47.974;16.398;2023-04-24T08:58:15;0.83;;;0.73;;
50126;SDS011;36024;47.974;16.398;2023-04-24T09:00:43;0.83;;;0.40;;
50126;SDS011;36024;47.974;16.398;2023-04-24T09:03:13;1.57;;;0.40;;
50126;SDS011;36024;47.974;16.398;2023-04-24T09:05:43;0.37;;;0.30;;
50126;SDS011;36024;47.974;16.398;2023-04-24T09:08:12;0.30;;;0.30;;
50126;SDS011;36024;47.974;16.398;2023-04-24T09:10:40;0.57;;;0.43;;
50126;SDS011;36024;47.974;16.398;2023-04-24T09:13:07;0.50;;;0.30;;
50126;SDS011;36024;47.974;16.398;2023-04-24T09:15:37;0.57;;;0.40;;
50126;SDS011;36024;47.974;16.398;2023-04-24T09:18:05;0.53;;;0.30;;
50126;SDS011;36024;47.974;16.398;2023-04-24T09:20:32;0.40;;;0.30;;
50126;SDS011;36024;47.974;16.398;2023-04-24T09:22:59;0.30;;;0.23;;
50126;SDS011;36024;47.974;16.398;2023-04-24T09:25:33;0.97;;;0.27;;
50126;SDS011;36024;47.974;16.398;2023-04-24T09:28:02;0.63;;;0.23;;
50126;SDS011;36024;47.974;16.398;2023-04-24T09:30:29;0.30;;;0.30;;
50126;SDS011;36024;47.974;16.398;2023-04-24T09:33:13;0.30;;;0.30;;
50126;SDS011;36024;47.974;16.398;2023-04-24T09:35:41;0.30;;;0.30;;
50126;SDS011;36024;47.974;16.398;2023-04-24T09:38:09;0.53;;;0.43;;
50126;SDS011;36024;47.974;16.398;2023-04-24T09:40:37;0.30;;;0.30;;
50126;SDS011;36024;47.974;16.398;2023-04-24T09:43:09;1.57;;;0.37;;
50126;SDS011;36024;47.974;16.398;2023-04-24T09:45:38;0.40;;;0.20;;
50126;SDS011;36024;47.974;16.398;2023-04-24T09:48:09;0.80;;;0.30;;
50126;SDS011;36024;47.974;16.398;2023-04-24T09:50:37;2.07;;;0.30;;
50126;SDS011;36024;47.974;16.398;2023-04-24T09:53:04;0.30;;;0.30;;
50126;SDS011;36024;47.974;16.398;2023-04-24T09:55:38;0.17;;;0.17;;
50126;SDS011;36024;47.974;16.398;2023-04-24T09:58:07;0.40;;;0.30;;
50126;SDS011;36024;47.974;16.398;2023-04-24T10:00:34;0.30;;;0.20;;
50126;SDS011;36024;47.974;16.398;2023-04-24T10:03:02;0.20;;;0.20;;
50126;SDS011;36024;47.974;16.398;2023-04-24T10:05:31;0.50;;;0.30;;
50126;SDS011;36024;47.974;16.398;2023-04-24T10:10:30;0.60;;;0.50;;
50126;SDS011;36024;47.974;16.398;2023-04-24T10:12:58;0.83;;;0.30;;
50126;SDS011;36024;47.974;16.398;2023-04-24T10:15:25;0.30;;;0.30;;
50126;SDS011;36024;47.974;16.398;2023-04-24T10:17:52;1.07;;;0.30;;
50126;SDS011;36024;47.974;16.398;2023-04-24T10:20:20;0.37;;;0.30;;
50126;SDS011;36024;47.974;16.398;2023-04-24T10:22:49;1.00;;;0.63;;
50126;SDS011;36024;47.974;16.398;2023-04-24T10:25:18;0.40;;;0.30;;
50126;SDS011;36024;47.974;16.398;2023-04-24T10:27:49;0.43;;;0.20;;
50126;SDS011;36024;47.974;16.398;2023-04-24T10:30:18;0.33;;;0.20;;
50126;SDS011;36024;47.974;16.398;2023-04-24T10:32:45;0.30;;;0.30;;
50126;SDS011;36024;47.974;16.398;2023-04-24T10:35:13;0.93;;;0.30;;
50126;SDS011;36024;47.974;16.398;2023-04-24T10:37:43;0.73;;;0.40;;
50126;SDS011;36024;47.974;16.398;2023-04-24T10:40:16;0.30;;;0.30;;
50126;SDS011;36024;47.974;16.398;2023-04-24T10:42:48;0.50;;;0.40;;
50126;SDS011;36024;47.974;16.398;2023-04-24T10:45:16;0.30;;;0.30;;
50126;SDS011;36024;47.974;16.398;2023-04-24T10:47:52;0.93;;;0.30;;
50126;SDS011;36024;47.974;16.398;2023-04-24T10:50:19;0.33;;;0.30;;
50126;SDS011;36024;47.974;16.398;2023-04-24T10:52:46;0.27;;;0.27;;
50126;SDS011;36024;47.974;16.398;2023-04-24T10:55:13;0.70;;;0.50;;
50126;SDS011;36024;47.974;16.398;2023-04-24T10:58:00;0.30;;;0.23;;
50126;SDS011;36024;47.974;16.398;2023-04-24T11:00:29;0.63;;;0.40;;
50126;SDS011;36024;47.974;16.398;2023-04-24T11:02:56;0.20;;;0.20;;
50126;SDS011;36024;47.974;16.398;2023-04-24T11:05:48;0.30;;;0.30;;
50126;SDS011;36024;47.974;16.398;2023-04-24T11:08:22;0.33;;;0.30;;
50126;SDS011;36024;47.974;16.398;2023-04-24T11:11:34;0.50;;;0.23;;
50126;SDS011;36024;47.974;16.398;2023-04-24T11:21:55;0.83;;;0.30;;
50126;SDS011;36024;47.974;16.398;2023-04-24T11:26:56;0.80;;;0.20;;
50126;SDS011;36024;47.974;16.398;2023-04-24T11:29:44;0.47;;;0.40;;
50126;SDS011;36024;47.974;16.398;2023-04-24T11:32:18;0.70;;;0.60;;
50126;SDS011;36024;47.974;16.398;2023-04-24T11:34:50;0.40;;;0.40;;
50126;SDS011;36024;47.974;16.398;2023-04-24T11:37:21;0.30;;;0.30;;
50126;SDS011;36024;47.974;16.398;2023-04-24T11:39:50;0.60;;;0.30;;
50126;SDS011;36024;47.974;16.398;2023-04-24T11:42:18;0.60;;;0.30;;
50126;SDS011;36024;47.974;16.398;2023-04-24T11:44:44;1.60;;;0.40;;
50126;SDS011;36024;47.974;16.398;2023-04-24T11:47:14;0.40;;;0.33;;
50126;SDS011;36024;47.974;16.398;2023-04-24T11:49:40;0.27;;;0.20;;
50126;SDS011;36024;47.974;16.398;2023-04-24T11:52:07;0.43;;;0.40;;
50126;SDS011;36024;47.974;16.398;2023-04-24T11:54:34;1.23;;;0.40;;
50126;SDS011;36024;47.974;16.398;2023-04-24T11:57:03;0.30;;;0.30;;
50126;SDS011;36024;47.974;16.398;2023-04-24T11:59:35;0.33;;;0.30;;
50126;SDS011;36024;47.974;16.398;2023-04-24T12:02:03;0.47;;;0.30;;
50126;SDS011;36024;47.974;16.398;2023-04-24T12:04:37;0.37;;;0.30;;
50126;SDS011;36024;47.974;16.398;2023-04-24T12:07:06;0.50;;;0.40;;
50126;SDS011;36024;47.974;16.398;2023-04-24T12:09:44;0.93;;;0.50;;
50126;SDS011;36024;47.974;16.398;2023-04-24T12:12:24;0.70;;;0.40;;
50126;SDS011;36024;47.974;16.398;2023-04-24T12:14:57;1.03;;;0.40;;
50126;SDS011;36024;47.974;16.398;2023-04-24T12:19:58;0.40;;;0.40;;
50126;SDS011;36024;47.974;16.398;2023-04-24T12:22:27;0.50;;;0.43;;
50126;SDS011;36024;47.974;16.398;2023-04-24T12:24:58;0.30;;;0.30;;
50126;SDS011;36024;47.974;16.398;2023-04-24T12:27:29;0.50;;;0.40;;
50126;SDS011;36024;47.974;16.398;2023-04-24T12:29:57;0.50;;;0.50;;
50126;SDS011;36024;47.974;16.398;2023-04-24T12:32:25;0.50;;;0.50;;
50126;SDS011;36024;47.974;16.398;2023-04-24T12:34:54;0.90;;;0.40;;
50126;SDS011;36024;47.974;16.398;2023-04-24T12:37:25;0.40;;;0.40;;
50126;SDS011;36024;47.974;16.398;2023-04-24T12:39:59;0.50;;;0.50;;
50126;SDS011;36024;47.974;16.398;2023-04-24T12:42:34;0.50;;;0.50;;
50126;SDS011;36024;47.974;16.398;2023-04-24T12:45:02;0.40;;;0.40;;
50126;SDS011;36024;47.974;16.398;2023-04-24T12:47:31;0.50;;;0.50;;
50126;SDS011;36024;47.974;16.398;2023-04-24T12:49:58;0.63;;;0.50;;
50126;SDS011;36024;47.974;16.398;2023-04-24T12:52:26;0.57;;;0.40;;
50126;SDS011;36024;47.974;16.398;2023-04-24T12:54:57;0.40;;;0.40;;
50126;SDS011;36024;47.974;16.398;2023-04-24T12:57:25;0.40;;;0.40;;
50126;SDS011;36024;47.974;16.398;2023-04-24T12:59:56;0.40;;;0.40;;
50126;SDS011;36024;47.974;16.398;2023-04-24T13:02:24;1.13;;;0.40;;
50126;SDS011;36024;47.974;16.398;2023-04-24T13:04:53;0.30;;;0.30;;
50126;SDS011;36024;47.974;16.398;2023-04-24T13:07:20;0.53;;;0.30;;
50126;SDS011;36024;47.974;16.398;2023-04-24T13:09:47;0.90;;;0.50;;
50126;SDS011;36024;47.974;16.398;2023-04-24T13:12:15;0.70;;;0.30;;
50126;SDS011;36024;47.974;16.398;2023-04-24T13:14:41;0.40;;;0.40;;
50126;SDS011;36024;47.974;16.398;2023-04-24T13:17:08;0.37;;;0.33;;
50126;SDS011;36024;47.974;16.398;2023-04-24T13:19:36;1.07;;;0.50;;
50126;SDS011;36024;47.974;16.398;2023-04-24T13:22:03;0.33;;;0.33;;
50126;SDS011;36024;47.974;16.398;2023-04-24T13:24:31;0.40;;;0.40;;
50126;SDS011;36024;47.974;16.398;2023-04-24T13:26:58;0.40;;;0.40;;
50126;SDS011;36024;47.974;16.398;2023-04-24T13:29:26;1.30;;;0.53;;
50126;SDS011;36024;47.974;16.398;2023-04-24T13:31:53;0.97;;;0.50;;
50126;SDS011;36024;47.974;16.398;2023-04-24T13:34:21;0.40;;;0.40;;
50126;SDS011;36024;47.974;16.398;2023-04-24T13:36:52;1.43;;;0.40;;
50126;SDS011;36024;47.974;16.398;2023-04-24T13:39:20;0.53;;;0.47;;
50126;SDS011;36024;47.974;16.398;2023-04-24T13:41:47;0.87;;;0.50;;
50126;SDS011;36024;47.974;16.398;2023-04-24T13:44:15;0.50;;;0.50;;
50126;SDS011;36024;47.974;16.398;2023-04-24T13:46:42;0.97;;;0.40;;
50126;SDS011;36024;47.974;16.398;2023-04-24T13:49:13;1.33;;;0.50;;
50126;SDS011;36024;47.974;16.398;2023-04-24T13:51:41;0.50;;;0.40;;
50126;SDS011;36024;47.974;16.398;2023-04-24T13:54:08;0.30;;;0.30;;
50126;SDS011;36024;47.974;16.398;2023-04-24T13:56:35;0.67;;;0.50;;
50126;SDS011;36024;47.974;16.398;2023-04-24T13:59:01;0.50;;;0.40;;
50126;SDS011;36024;47.974;16.398;2023-04-24T14:01:28;0.40;;;0.40;;
50126;SDS011;36024;47.974;16.398;2023-04-24T14:03:55;0.30;;;0.30;;
50126;SDS011;36024;47.974;16.398;2023-04-24T14:06:23;1.27;;;0.50;;
50126;SDS011;36024;47.974;16.398;2023-04-24T14:08:49;0.47;;;0.40;;
50126;SDS011;36024;47.974;16.398;2023-04-24T14:11:17;0.70;;;0.37;;
50126;SDS011;36024;47.974;16.398;2023-04-24T14:13:44;0.77;;;0.30;;
50126;SDS011;36024;47.974;16.398;2023-04-24T14:16:12;1.90;;;0.30;;
50126;SDS011;36024;47.974;16.398;2023-04-24T14:18:39;0.40;;;0.40;;
50126;SDS011;36024;47.974;16.398;2023-04-24T14:21:06;0.70;;;0.40;;
50126;SDS011;36024;47.974;16.398;2023-04-24T14:23:33;0.97;;;0.40;;
50126;SDS011;36024;47.974;16.398;2023-04-24T14:25:59;0.50;;;0.20;;
50126;SDS011;36024;47.974;16.398;2023-04-24T14:28:26;0.57;;;0.40;;
50126;SDS011;36024;47.974;16.398;2023-04-24T14:30:53;1.90;;;0.40;;
50126;SDS011;36024;47.974;16.398;2023-04-24T14:33:20;0.60;;;0.30;;
50126;SDS011;36024;47.974;16.398;2023-04-24T14:35:46;0.40;;;0.40;;
50126;SDS011;36024;47.974;16.398;2023-04-24T14:38:14;1.43;;;0.43;;
50126;SDS011;36024;47.974;16.398;2023-04-24T14:40:41;0.43;;;0.43;;
50126;SDS011;36024;47.974;16.398;2023-04-24T14:43:11;1.60;;;0.30;;
50126;SDS011;36024;47.974;16.398;2023-04-24T14:45:38;0.40;;;0.40;;
50126;SDS011;36024;47.974;16.398;2023-04-24T14:48:06;0.50;;;0.50;;
50126;SDS011;36024;47.974;16.398;2023-04-24T14:50:34;0.60;;;0.60;;
50126;SDS011;36024;47.974;16.398;2023-04-24T14:53:01;0.77;;;0.40;;
50126;SDS011;36024;47.974;16.398;2023-04-24T14:55:28;1.77;;;0.40;;
50126;SDS011;36024;47.974;16.398;2023-04-24T14:57:55;1.73;;;0.53;;